Latest Weather Observations for Murganella Airstrip

IDD60801

Issued at 2:31 pm CST Tuesday 24 January 2017 (issued every 30 minutes, with the page automatically refreshed every 10 minutes)

About weather observations | Map of weather stations | Latest weather observations for NT | Other Formats
Station Details ID: 014309 Name: MURGANELLA AIRSTRIP Lat: -11.55 Lon: 132.93 Height: 9.5 m
Data from the previous 72 hours. | See also: Recent months at Murganella Airstrip
Date/Time
CST
Temp
°C
App
Temp
°C
Dew
Point
°C
Rel
Hum
%
Delta-T
°C
Wind Press
QNH
hPa
Press
MSL
hPa
Rain since
9am
mm
Dir  Spd
km/h
Gust
km/h
Spd
kts
Gust
kts
24/02:00pm 30.9 34.2 23.8 66 4.9 W 13 28 7 15 1006.4 1006.3 0.0
24/01:30pm 29.5 31.7 23.2 69 4.3 W 17 30 9 16 1006.9 1006.8 0.0
24/01:00pm 29.3 30.7 22.8 68 4.4 WSW 20 33 11 18 1006.8 1006.7 0.0
24/12:30pm 29.6 31.8 23.3 69 4.3 W 17 35 9 19 1007.2 1007.1 0.0
24/12:00pm 28.5 31.2 23.4 74 3.5 W 15 33 8 18 1007.8 1007.7 0.0
24/11:30am 28.5 31.5 23.4 74 3.5 W 13 26 7 14 1008.0 1007.9 0.0
24/11:00am 27.9 30.5 23.3 76 3.1 W 15 28 8 15 1008.1 1008.0 0.0
24/10:30am 27.1 31.0 24.2 84 2.0 W 11 24 6 13 1008.4 1008.3 0.0
24/10:00am 26.6 30.7 23.9 85 1.9 W 9 19 5 10 1008.3 1008.2 0.0
24/09:30am 26.1 29.0 23.2 84 2.0 WNW 13 30 7 16 1008.3 1008.2 0.0
24/09:00am 25.6 28.7 23.5 88 1.4 W 13 20 7 11 1007.8 1007.7 22.6
24/08:30am 25.2 28.7 23.6 91 1.1 W 11 20 6 11 1007.6 1007.5 22.6
24/08:00am 24.6 28.0 23.4 93 0.8 W 11 24 6 13 1007.6 1007.5 22.6
24/07:30am 24.0 26.7 22.8 93 0.8 WSW 13 26 7 14 1007.2 1007.1 22.6
24/07:00am 24.0 26.9 23.1 95 0.6 WSW 13 24 7 13 1007.5 1007.4 22.4
24/06:30am 23.9 26.3 23.0 95 0.6 W 15 28 8 15 1007.1 1007.0 22.2
24/06:00am 23.7 27.3 23.0 96 0.5 W 9 17 5 9 1007.1 1007.0 18.4
24/05:30am 23.5 26.8 22.5 94 0.7 W 9 19 5 10 1007.0 1006.9 17.8
24/05:00am 23.5 27.8 22.7 95 0.5 NW 4 6 2 3 1006.7 1006.6 16.8
24/04:30am 23.4 27.1 22.6 95 0.5 WSW 7 15 4 8 1006.7 1006.6 16.8
24/04:00am 23.6 26.6 22.6 94 0.7 WSW 11 20 6 11 1006.6 1006.5 14.8
24/03:30am 25.8 29.3 24.2 91 1.1 NW 13 24 7 13 1006.0 1005.9 7.4
24/03:00am 25.3 30.2 23.7 91 1.1 WSW 4 6 2 3 1006.1 1006.0 7.4
24/02:30am 25.1 30.8 23.7 92 1.0 CALM 0 0 0 0 1006.4 1006.3 7.4
24/02:00am 25.3 30.1 23.5 90 1.2 NW 4 7 2 4 1006.5 1006.4 7.4
24/01:30am 25.5 29.8 23.6 89 1.3 WNW 7 15 4 8 1007.0 1006.9 7.4
24/01:00am 25.0 30.0 23.8 93 0.8 WNW 4 7 2 4 1007.5 1007.4 7.4
24/12:30am 25.0 30.1 24.0 94 0.7 W 4 6 2 3 1007.8 1007.7 7.4
24/12:00am 24.9 30.0 24.0 95 0.6 WNW 4 6 2 3 1008.1 1008.0 7.2
 
Date/Time
CST
Temp
°C
App
Temp
°C
Dew
Point
°C
Rel
Hum
%
Delta-T
°C
Wind Press
QNH
hPa
Press
MSL
hPa
Rain since
9am
mm
Dir  Spd
km/h
Gust
km/h
Spd
kts
Gust
kts
23/11:30pm 24.8 30.6 23.9 95 0.6 CALM 0 0 0 0 1008.4 1008.3 7.2
23/11:00pm 24.7 29.2 23.7 94 0.7 NW 6 11 3 6 1008.6 1008.5 7.0
23/10:30pm 24.7 29.2 23.7 94 0.7 NNW 6 7 3 4 1008.5 1008.4 5.6
23/10:00pm 25.1 29.4 23.7 92 1.0 WNW 7 17 4 9 1008.3 1008.2 4.4
23/09:30pm 25.5 31.0 23.4 88 1.4 CALM 0 0 0 0 1007.6 1007.5 2.2
23/09:00pm 26.5 30.4 23.0 81 2.4 WSW 7 15 4 8 1007.5 1007.4 2.2
23/08:30pm 27.0 31.1 23.0 79 2.7 W 6 11 3 6 1007.3 1007.2 2.2
23/08:00pm 27.1 31.3 23.1 79 2.7 WNW 6 11 3 6 1006.8 1006.7 2.2
23/07:30pm 27.3 31.6 23.3 79 2.7 W 6 11 3 6 1006.6 1006.5 2.2
23/07:00pm 27.5 31.7 23.1 77 3.0 W 6 13 3 7 1006.2 1006.1 2.2
23/06:30pm 27.7 32.0 23.3 77 3.0 W 6 11 3 6 1005.6 1005.5 2.2
23/06:00pm 28.1 32.6 23.7 77 3.0 W 6 11 3 6 1004.8 1004.7 2.2
23/05:30pm 28.1 32.2 23.2 74 3.4 W 7 17 4 9 1004.7 1004.6 2.2
23/05:00pm 28.4 31.9 23.5 75 3.4 W 11 20 6 11 1004.9 1004.8 2.2
23/04:30pm 28.7 31.9 23.1 71 3.8 W 11 20 6 11 1004.8 1004.7 2.2
23/04:00pm 29.2 31.7 23.2 70 4.1 W 15 28 8 15 1004.7 1004.6 2.2
23/03:30pm 29.1 32.6 23.5 72 3.9 W 11 22 6 12 1004.7 1004.6 2.2
23/03:00pm 29.4 32.3 23.8 72 3.9 W 15 26 8 14 1004.8 1004.7 2.2
23/02:30pm 30.1 33.5 24.7 73 3.8 WSW 15 28 8 15 1005.1 1005.0 2.2
23/02:00pm 29.8 32.5 23.5 69 4.3 W 15 28 8 15 1005.6 1005.5 2.2
23/01:30pm 28.6 31.4 23.7 75 3.4 W 15 26 8 14 1006.1 1006.0 2.2
23/01:00pm 28.2 32.7 24.6 81 2.5 W 9 19 5 10 1006.7 1006.6 2.2
23/12:30pm 27.0 30.8 24.1 84 2.0 W 11 26 6 14 1007.0 1006.9 2.2
23/12:00pm 26.3 30.6 24.2 88 1.5 W 9 22 5 12 1007.3 1007.2 2.2
23/11:30am 25.4 29.4 23.8 91 1.1 W 9 20 5 11 1007.6 1007.5 2.2
23/11:00am 25.1 29.3 24.1 94 0.7 W 9 19 5 10 1007.9 1007.8 2.2
23/10:30am 24.9 29.4 23.9 94 0.7 W 7 13 4 7 1008.1 1008.0 1.8
23/10:00am 24.8 29.3 23.9 95 0.6 W 7 13 4 7 1008.3 1008.2 1.6
23/09:30am 24.5 28.3 23.5 94 0.7 W 9 15 5 8 1008.4 1008.3 0.8
23/09:00am 24.4 26.9 23.2 93 0.8 WSW 15 26 8 14 1008.6 1008.5 109.2
23/08:30am 25.4 29.8 24.4 94 0.7 W 9 19 5 10 1008.0 1007.9 108.8
23/08:00am 25.4 29.8 24.5 95 0.6 WNW 9 17 5 9 1007.4 1007.3 108.8
23/07:30am 25.1 30.4 24.4 96 0.5 WNW 4 9 2 5 1006.8 1006.7 108.4
23/07:00am 25.1 29.9 24.4 96 0.5 W 7 13 4 7 1007.1 1007.0 105.6
23/06:30am 25.0 28.9 24.3 96 0.5 WSW 11 22 6 12 1007.1 1007.0 96.8
23/06:00am 25.1 30.4 24.4 96 0.5 SSW 4 6 2 3 1006.5 1006.4 84.4
23/05:30am 25.1 30.3 24.2 95 0.6 WSW 4 6 2 3 1005.9 1005.8 82.0
23/05:00am 25.2 30.5 24.3 95 0.6 SW 4 6 2 3 1005.9 1005.8 80.6
23/04:30am 25.2 30.2 24.5 96 0.5 NNW 6 9 3 5 1005.4 1005.3 79.8
23/04:00am 25.2 30.0 24.5 96 0.5 NW 7 13 4 7 1005.2 1005.1 79.0
23/03:30am 25.0 30.0 24.5 97 0.3 NW 6 9 3 5 1005.7 1005.6 77.2
23/03:00am 24.4 28.9 23.7 96 0.5 NW 6 9 3 5 1006.1 1006.0 74.8
23/02:30am 23.8 26.9 22.8 94 0.7 NW 11 17 6 9 1006.5 1006.4 73.4
23/02:00am 24.4 28.4 23.7 96 0.5 NW 9 22 5 12 1007.0 1006.9 71.2
23/01:30am 24.3 28.6 23.6 96 0.5 WNW 7 11 4 6 1007.2 1007.1 66.8
23/01:00am 24.1 28.3 23.2 95 0.6 W 6 11 3 6 1007.7 1007.6 60.8
23/12:30am 24.3 28.1 23.4 95 0.6 W 9 15 5 8 1008.1 1008.0 55.0
23/12:00am 24.3 28.0 23.3 94 0.7 W 9 15 5 8 1008.1 1008.0 53.2
 
Date/Time
CST
Temp
°C
App
Temp
°C
Dew
Point
°C
Rel
Hum
%
Delta-T
°C
Wind Press
QNH
hPa
Press
MSL
hPa
Rain since
9am
mm
Dir  Spd
km/h
Gust
km/h
Spd
kts
Gust
kts
22/11:30pm 24.7 28.7 23.8 95 0.6 WNW 9 19 5 10 1008.6 1008.5 52.4
22/11:00pm 24.6 29.3 23.9 96 0.5 WNW 6 13 3 7 1009.2 1009.1 52.2
22/10:30pm 24.5 29.1 23.8 96 0.5 WNW 6 11 3 6 1009.6 1009.5 50.2
22/10:00pm 24.4 28.4 23.7 96 0.5 WNW 9 15 5 8 1009.6 1009.5 49.0
22/09:30pm 24.3 28.9 23.8 97 0.3 WNW 6 7 3 4 1009.4 1009.3 46.8
22/09:00pm 23.8 28.9 23.3 97 0.3 W 2 4 1 2 1008.7 1008.6 43.8
22/08:30pm 23.7 28.6 23.0 96 0.5 SSW 2 6 1 3 1008.5 1008.4 40.0
22/08:00pm 23.6 27.7 22.9 96 0.5 SW 6 11 3 6 1008.3 1008.2 36.4
22/07:30pm 23.2 26.9 22.5 96 0.5 SW 7 13 4 7 1008.7 1008.6 32.8
22/07:00pm 23.3 26.0 22.1 93 0.8 SSW 11 20 6 11 1008.7 1008.6 28.0
22/06:30pm 24.3 29.2 23.1 93 0.8 SSE 2 6 1 3 1007.9 1007.8 20.6
22/06:00pm 25.2 29.9 24.0 93 0.8 SSE 6 11 3 6 1007.4 1007.3 17.6
22/05:30pm 25.9 30.6 24.3 91 1.1 NNW 7 15 4 8 1006.7 1006.6 15.6
22/05:00pm 26.5 30.8 24.2 87 1.6 NW 9 17 5 9 1006.5 1006.4 15.0
22/04:30pm 26.7 31.0 24.9 90 1.3 NNW 11 19 6 10 1006.2 1006.1 15.0
22/04:00pm 26.8 30.5 24.6 88 1.5 NNW 13 20 7 11 1006.4 1006.3 15.0
22/03:30pm 26.5 30.8 24.9 91 1.1 NNW 11 22 6 12 1006.7 1006.6 15.0
22/03:00pm 25.7 30.0 24.3 92 1.0 NNW 9 15 5 8 1006.9 1006.8 15.0
22/02:30pm 25.1 30.2 24.1 94 0.7 WNW 4 6 2 3 1006.7 1006.6 15.0
22/02:00pm 24.9 30.7 24.0 95 0.6 CALM 0 0 0 0 1007.0 1006.9 15.0
22/01:30pm 24.4 28.8 23.4 94 0.7 W 6 9 3 5 1007.9 1007.8 15.0
22/01:00pm 24.3 29.0 23.4 95 0.6 NNE 4 6 2 3 1008.1 1008.0 14.6
22/12:30pm 24.3 28.4 23.3 94 0.7 NW 7 13 4 7 1008.9 1008.8 14.4
22/12:00pm 24.7 26.0 22.4 87 1.5 W 19 35 10 19 1008.9 1008.8 4.6
22/11:30am 29.4 35.2 25.2 78 3.0 WSW 4 7 2 4 1009.0 1008.9 0.6
22/11:00am 28.6 35.1 26.2 87 1.7 WSW 4 9 2 5 1009.2 1009.1 0.4
22/10:30am 27.7 33.9 26.3 92 1.0 WNW 6 9 3 5 1009.3 1009.2 0.4
22/10:00am 26.3 32.2 25.4 95 0.6 W 4 9 2 5 1009.1 1009.0 0.4
22/09:30am 25.2 31.3 24.5 96 0.5 CALM 0 4 0 2 1009.4 1009.3 0.4
22/09:00am 24.5 29.9 23.8 96 0.5 W 2 4 1 2 1009.5 1009.4 22.6
22/08:30am 24.2 29.8 23.5 96 0.5 CALM 0 0 0 0 1009.7 1009.6 22.2
22/08:00am 24.0 29.4 23.3 96 0.5 CALM 0 0 0 0 1009.6 1009.5 22.2
22/07:30am 23.9 28.4 23.0 95 0.6 WNW 4 7 2 4 1009.8 1009.7 21.6
22/07:00am 23.9 28.4 23.0 95 0.6 W 4 6 2 3 1009.7 1009.6 21.2
22/06:30am 23.9 28.1 23.2 96 0.5 WNW 6 9 3 5 1009.1 1009.0 20.8
22/06:00am 24.6 27.7 23.6 94 0.7 SSW 13 32 7 17 1009.1 1009.0 8.2
22/05:30am 25.3 31.4 24.4 95 0.6 CALM 0 0 0 0 1008.3 1008.2 4.6
22/05:00am 25.3 31.4 24.4 95 0.6 CALM 0 0 0 0 1007.8 1007.7 4.6
22/04:30am 25.5 31.7 24.6 95 0.6 CALM 0 0 0 0 1008.1 1008.0 4.6
22/04:00am 25.6 31.9 24.7 95 0.6 CALM 0 0 0 0 1008.1 1008.0 4.6
22/03:30am 25.8 32.1 24.8 94 0.7 CALM 0 0 0 0 1008.2 1008.1 4.6
22/03:00am 25.7 31.6 24.7 94 0.7 W 2 4 1 2 1008.5 1008.4 4.6
22/02:30am 25.7 31.7 24.8 95 0.6 W 2 4 1 2 1008.6 1008.5 4.6
22/02:00am 25.8 32.2 24.9 95 0.6 CALM 0 0 0 0 1008.8 1008.7 4.6
22/01:30am 25.8 31.4 24.9 95 0.6 WNW 4 6 2 3 1009.1 1009.0 4.6
22/01:00am 25.4 31.5 24.5 95 0.6 CALM 0 0 0 0 1009.4 1009.3 4.6
22/12:30am 25.5 31.7 24.6 95 0.6 CALM 0 0 0 0 1009.9 1009.8 4.6
22/12:00am 25.3 31.4 24.4 95 0.6 CALM 0 0 0 0 1010.2 1010.1 4.6
 
Date/Time
CST
Temp
°C
App
Temp
°C
Dew
Point
°C
Rel
Hum
%
Delta-T
°C
Wind Press
QNH
hPa
Press
MSL
hPa
Rain since
9am
mm
Dir  Spd
km/h
Gust
km/h
Spd
kts
Gust
kts
21/11:30pm 25.4 31.5 24.5 95 0.6 CALM 0 0 0 0 1010.3 1010.2 4.6
21/11:00pm 25.5 31.7 24.6 95 0.6 CALM 0 0 0 0 1010.6 1010.5 4.6
21/10:30pm 25.4 31.5 24.5 95 0.6 CALM 0 0 0 0 1010.6 1010.5 4.6
21/10:00pm 25.3 31.4 24.4 95 0.6 CALM 0 0 0 0 1010.3 1010.2 4.6
21/09:30pm 25.3 31.0 24.4 95 0.6 NNW 2 4 1 2 1010.1 1010.0 4.6
21/09:00pm 25.2 31.2 24.3 95 0.6 CALM 0 0 0 0 1009.8 1009.7 4.6
21/08:30pm 25.0 30.9 24.1 95 0.6 CALM 0 0 0 0 1009.6 1009.5 4.6
21/08:00pm 25.1 31.1 24.2 95 0.6 CALM 0 0 0 0 1009.6 1009.5 4.6
21/07:30pm 25.0 30.8 24.0 94 0.7 CALM 0 0 0 0 1009.0 1008.9 4.6
21/07:00pm 24.9 30.6 23.7 93 0.8 CALM 0 0 0 0 1008.6 1008.5 4.6
21/06:30pm 24.7 30.4 23.7 94 0.7 CALM 0 4 0 2 1008.4 1008.3 4.6
21/06:00pm 24.5 29.6 23.3 93 0.8 N 2 4 1 2 1007.9 1007.8 4.6
21/05:30pm 24.4 29.0 23.2 93 0.8 WNW 4 6 2 3 1007.9 1007.8 4.6
21/05:00pm 24.4 28.9 23.0 92 0.9 W 4 7 2 4 1007.8 1007.7 4.6
21/04:30pm 25.0 28.3 23.2 90 1.2 WNW 11 24 6 13 1008.0 1007.9 3.6
21/04:00pm 27.1 32.6 24.6 86 1.7 NNW 4 7 2 4 1007.8 1007.7 2.6
21/03:30pm 26.9 31.8 23.6 82 2.3 NNW 4 9 2 5 1007.6 1007.5 2.6
21/03:00pm 29.2 33.9 24.3 75 3.4 WNW 7 15 4 8 1007.6 1007.5 2.6

Other Formats:

Comma delimited format used in spreadsheet applications
http://www.bom.gov.au/fwo/IDD60801/IDD60801.94109.axf

JavaScript Object Notation format (JSON) in row-major order
http://www.bom.gov.au/fwo/IDD60801/IDD60801.94109.json